Flugplatz Hohn Airport

Bericht für ETNH

vom 31.05. um 03:20 UTC

Wind 1 kt aus 340°

Sichtweite 10 km oder mehr

aufgebrochene Bewölkung in 21000 ft

Temperatur 6.0°C

Taupunkt 5.0°C

Luftfeuchtigkeit 93%

Luftdruck 1026 hPa

ETNH 310320Z 34001KT 9999 BKN210 06/05 Q1026 BLU+

Prognose für ETNH

vom 30.05. um 22:00 UTC

Am 30.05. zwischen 23:00 UTC und 11:00 UTC

Wind 5 kt aus 30°

Sichtweite 10 km oder mehr

keine signifikanten Wettererscheinungen

gering bewölkt in 27000 ft

TAF ETNH 302200Z 3023/3111 03005KT 9999 NSW FEW270 BY ETGL
Impressum